Arbúcies





Hora UTC 21:50
Temperatura 7.9 ºC
Humitat 94.2 %
Pressió 1022.0 hPa
Pluja 5.0 mm
Velocitat vent 5.7 km/h
Direcció vent SSW
Radiació solar 0.0 W/m²

Dades diàries 2020-03-31



Hora UTC (hivern +1h; estiu +2h)
Temperatura (ºC) Humitat (%) Pressió (hPa) Velocitat vent (km/h) Precipitació (mm) Radiació solar (W/m²)
Hora UTC Aire Humitat Pressió Vel. Dir. Vel. Max Dir. Intent. màx 5 min. Rad. Sol.
00:05 6.5 94.5 1021.0 2.3 WSW 4.6 SW 0.0 0.0
00:10 6.6 94.5 1021.0 2.0 WSW 3.5 SW 0.0 0.0
00:15 6.6 94.5 1021.0 3.7 SW 5.3 SW 0.0 0.0
00:20 6.5 94.5 1021.0 4.1 SSW 5.6 SSW 0.0 0.0
00:25 6.5 94.6 1021.0 1.9 SW 4.2 SW 0.0 0.0
00:30 6.6 94.5 1021.0 2.7 SSW 4.9 SSW 0.0 0.0
00:35 6.5 94.5 1021.0 3.3 SSW 4.9 S 0.0 0.0
00:40 6.5 94.5 1021.0 1.4 SW 4.9 SSW 0.0 0.0
00:45 6.5 94.5 1021.0 4.0 SW 6.4 SW 0.0 0.0
00:50 6.6 94.6 1021.0 4.1 SW 6.0 SW 0.0 0.0
00:55 6.6 94.6 1021.0 3.7 SW 6.0 SW 0.0 0.0
01:00 6.5 94.6 1021.0 3.9 SW 6.0 SSW 0.0 0.0
01:05 6.5 94.6 1021.0 4.3 SW 6.4 SW 0.0 0.0
01:10 6.5 94.6 1021.0 3.9 SW 6.4 SW 0.0 0.0
01:15 6.5 94.6 1020.0 2.4 SW 6.4 SSW 0.0 0.0
01:20 6.5 94.6 1021.0 2.9 SW 6.7 SSW 0.0 0.0
01:25 6.5 94.7 1021.0 4.8 SSW 8.1 SSW 0.0 0.0
01:30 6.6 94.7 1020.0 3.3 SW 6.7 S 0.0 0.0
01:35 6.6 94.6 1020.0 0.4 N 2.1 SSE 0.0 0.0
01:40 6.6 94.6 1020.0 0.8 SSW 2.5 S 0.0 0.0
01:45 6.6 94.6 1020.0 1.5 WSW 3.2 NE 0.0 0.0
01:50 6.6 94.6 1021.0 2.2 SSE 3.9 S 0.0 0.0
01:55 6.6 94.7 1021.0 3.5 W 4.9 SSW 0.0 0.0
02:00 6.6 94.7 1020.0 5.2 SSW 6.7 SW 0.0 0.0
02:05 6.6 94.7 1020.0 5.8 SW 8.1 SW 0.0 0.0
02:10 6.5 94.7 1020.0 4.9 SW 8.1 SSW 0.0 0.0
02:15 6.5 94.7 1020.0 5.6 SW 8.8 SW 0.0 0.0
02:20 6.5 94.7 1021.0 5.2 SW 7.1 SW 0.0 0.0
02:25 6.4 94.7 1020.0 6.4 SW 8.1 SW 0.0 0.0
02:30 6.4 94.7 1020.0 5.0 WSW 7.1 WSW 0.0 0.0
02:35 6.4 94.7 1020.0 3.1 WSW 6.0 SW 0.0 0.0
02:40 6.4 94.8 1020.0 3.0 WSW 5.6 SW 0.0 0.0
02:45 6.3 94.8 1020.0 5.5 SSW 7.4 SSW 0.0 0.0
02:50 6.2 94.7 1021.0 5.2 SW 8.1 SW 0.0 0.0
02:55 6.3 94.8 1020.0 5.0 SW 7.8 SW 0.0 0.0
03:00 6.3 94.8 1020.0 4.7 SW 8.1 WSW 0.0 0.0
03:05 6.2 94.7 1020.0 3.4 SW 6.4 SW 0.1 0.0
03:10 6.1 94.7 1020.0 2.0 S 4.6 SSW 0.0 0.0
03:15 6.1 94.7 1020.0 0.2 S 1.8 S 0.0 0.0
03:20 6.1 94.8 1021.0 1.6 SW 3.9 WSW 0.0 0.0
03:25 6.1 94.7 1020.0 3.0 SW 4.6 WSW 0.0 0.0
03:30 6.1 94.7 1020.0 3.9 SW 5.3 SW 0.0 0.0
03:35 6.0 94.7 1020.0 3.9 SSW 5.6 SSW 0.0 0.0
03:40 6.0 94.8 1020.0 2.0 SW 3.2 WSW 0.0 0.0
03:45 6.1 94.8 1020.0 2.1 SW 3.5 SW 0.0 0.0
03:50 6.0 94.8 1021.0 3.2 SSW 4.9 SW 0.0 0.0
03:55 6.1 94.8 1021.0 3.5 SW 5.3 SW 0.0 0.0
04:00 6.0 94.8 1020.0 3.6 SW 5.3 SW 0.0 0.0
04:05 5.9 94.8 1021.0 3.5 SW 5.6 SW 0.0 0.0
04:10 6.0 94.9 1021.0 0.5 W 2.5 SSE 0.0 0.0
04:15 5.9 94.8 1021.0 0.4 SSE 2.1 SSE 0.0 0.0
04:20 5.9 94.9 1021.0 3.3 SW 4.9 SW 0.0 0.0
04:25 5.9 94.9 1021.0 4.3 SW 5.3 SSW 0.0 0.0
04:30 5.9 94.9 1021.0 4.7 SSW 7.1 SSW 0.0 0.0
04:35 5.8 94.9 1021.0 4.7 SW 7.8 SW 0.0 0.0
04:40 6.0 95.1 1020.0 3.5 WSW 5.6 SW 0.0 0.0
04:45 5.8 94.9 1020.0 7.5 SW 10.2 SSW 0.0 0.0
04:50 5.8 94.9 1021.0 4.7 WSW 7.4 WSW 0.0 0.0
04:55 5.8 94.9 1020.0 2.8 WSW 5.3 WSW 0.0 0.0
05:00 5.9 95.0 1021.0 2.4 WSW 4.2 SW 0.0 0.0
05:05 5.9 94.9 1021.0 4.0 SW 5.3 SW 0.0 0.0
05:10 5.9 95.0 1020.0 4.2 SW 5.6 SSW 0.0 0.0
05:15 5.9 95.0 1020.0 3.2 SW 4.9 SW 0.0 0.0
05:20 5.9 94.9 1021.0 3.2 SW 5.3 SW 0.0 0.0
05:25 5.9 94.9 1020.0 4.3 WSW 7.1 WSW 0.0 0.0
05:30 6.0 95.0 1020.0 3.1 WSW 4.9 W 0.0 0.0
05:35 6.0 95.0 1020.0 3.7 WSW 7.4 WNW 0.0 0.6
05:40 6.1 95.0 1020.0 2.6 W 7.4 WNW 0.0 0.9
05:45 6.0 94.9 1020.0 4.7 WNW 8.1 NW 0.0 1.4
05:50 6.0 94.8 1021.0 6.2 WNW 11.6 WNW 0.0 2.0
05:55 6.1 94.8 1020.0 5.2 WSW 11.3 WSW 0.0 2.8
06:00 6.1 94.7 1021.0 7.3 SW 12.7 SW 0.0 4.2
06:05 6.1 94.6 1021.0 7.2 SW 12.0 SSW 0.0 5.7
06:10 6.2 94.6 1021.0 6.1 WSW 10.6 WSW 0.0 7.7
06:15 6.2 94.5 1021.0 6.6 SW 10.2 W 0.0 10.5
06:20 6.2 94.5 1021.0 5.6 SW 7.8 SW 0.0 12.6
06:25 6.2 94.5 1021.0 5.8 SW 8.5 SW 0.0 16.1
06:30 6.2 94.4 1021.0 7.6 SW 10.6 SW 0.0 19.1
06:35 6.3 94.4 1021.0 4.5 WSW 7.4 SSW 0.0 22.2
06:40 6.3 94.3 1021.0 4.7 SW 7.4 SW 0.0 29.3
06:45 6.4 94.2 1021.0 4.3 SW 6.7 WSW 0.0 36.1
06:50 6.5 94.2 1021.0 4.6 SW 8.5 W 0.0 39.8
06:55 6.6 94.2 1021.0 4.6 SW 7.8 SSW 0.0 40.4
07:00 6.6 94.0 1021.0 5.6 SW 7.8 SW 0.0 39.0
07:05 6.6 93.8 1021.0 4.8 SSW 7.8 WSW 0.0 40.9
07:10 6.7 93.8 1021.0 3.4 SW 6.0 SW 0.0 45.0
07:15 6.8 93.9 1021.0 2.6 WSW 7.8 SSW 0.0 48.3
07:20 6.8 93.5 1021.0 5.6 SW 8.8 SSW 0.0 51.5
07:25 6.8 93.4 1021.0 4.2 SW 7.8 W 0.0 51.6
07:30 6.9 93.2 1021.0 5.5 SW 9.5 SW 0.0 52.4
07:35 7.0 93.0 1021.0 3.9 SW 7.4 SSW 0.0 58.2
07:40 7.1 93.0 1021.0 3.0 SW 6.0 WSW 0.0 66.7
07:45 7.2 92.8 1021.0 1.8 SW 3.9 SW 0.0 67.1
07:50 7.3 92.7 1021.0 3.9 SW 6.4 SW 0.0 65.0
07:55 7.3 92.3 1021.0 4.0 SW 6.0 SSW 0.0 66.8
08:00 7.4 92.3 1021.0 3.6 SW 7.4 WSW 0.0 79.5
08:05 7.6 92.2 1021.0 2.1 SW 4.6 SW 0.0 80.9
08:10 7.7 92.0 1021.0 3.9 SW 6.0 SW 0.0 71.5
08:15 7.7 91.7 1021.0 3.5 SSW 6.7 SW 0.0 69.8
08:20 7.8 91.6 1021.0 2.6 SW 4.2 SW 0.0 78.2
08:25 7.9 91.6 1021.0 1.2 SW 3.9 S 0.0 82.4
08:30 8.1 91.5 1021.0 0.3 SSW 2.1 SSW 0.0 79.7
08:35 8.1 91.1 1021.0 0.9 SE 2.8 SE 0.0 86.3
08:40 8.1 90.6 1021.0 1.1 SSW 2.8 S 0.0 80.6
08:45 8.2 90.1 1021.0 1.1 SW 2.5 SSW 0.0 74.1
08:50 8.3 90.1 1021.0 0.1 SW 1.1 SW 0.0 75.1
08:55 8.4 89.9 1021.0 0.0 NNW 0.4 NNW 0.0 67.8
09:00 8.4 89.6 1021.0 0.0 NNW 0.4 NNW 0.0 56.4
09:05 8.5 89.5 1021.0 0.6 WSW 3.5 SW 0.0 50.2
09:10 8.5 89.3 1021.0 1.6 SSW 3.5 SSW 0.0 42.3
09:15 8.5 89.2 1021.0 0.3 SSW 1.4 S 0.0 41.6
09:20 8.5 88.8 1022.0 1.6 SSW 3.5 SSW 0.0 47.4
09:25 8.6 89.2 1021.0 0.4 WSW 2.5 SW 0.0 46.3
09:30 8.7 89.2 1021.0 1.3 ENE 3.5 ENE 0.0 58.7
09:35 8.6 88.8 1021.0 1.1 E 2.5 ENE 0.0 70.0
09:40 8.7 89.0 1021.0 0.1 SE 1.1 SSE 0.0 85.7
09:45 8.8 88.8 1021.0 0.0 ESE 0.4 SSE 0.0 88.9
09:50 8.9 88.1 1021.0 0.0 ENE 0.7 NNE 0.0 99.8
09:55 8.9 87.4 1021.0 0.6 ENE 2.1 NE 0.0 129.9
10:00 9.0 86.4 1021.0 0.5 ENE 2.1 ENE 0.0 110.2
10:05 9.2 85.9 1021.0 0.6 NE 2.1 NNE 0.0 117.5
10:10 9.2 84.6 1021.0 0.1 NE 1.4 NE 0.0 125.6
10:15 9.4 84.5 1021.0 0.4 NW 2.1 WNW 0.0 141.5
10:20 9.6 84.3 1021.0 0.1 ESE 2.1 SSE 0.0 132.4
10:25 9.6 83.4 1021.0 1.1 E 3.2 E 0.0 135.8
10:30 9.6 81.8 1021.0 1.4 ENE 3.2 ENE 0.0 123.9
10:35 9.6 81.4 1021.0 0.9 E 2.8 ESE 0.0 110.8
10:40 9.7 81.1 1021.0 0.4 SSE 2.5 SSW 0.0 102.4
10:45 9.8 81.3 1021.0 1.7 SW 3.5 SW 0.0 115.2
10:50 9.9 81.2 1021.0 0.1 WSW 1.4 WSW 0.0 139.2
10:55 10.0 81.1 1021.0 0.8 SSW 2.1 SSW 0.0 154.4
11:00 10.2 81.4 1021.0 0.5 S 2.1 SSW 0.0 167.7
11:05 10.4 81.2 1021.0 1.0 SSW 2.5 SSW 0.0 166.8
11:10 10.5 80.0 1021.0 2.3 SW 5.6 SW 0.0 178.8
11:15 10.6 78.7 1021.0 1.6 WSW 3.9 W 0.0 211.2
11:20 10.9 78.1 1021.0 2.2 WSW 4.6 W 0.0 228.8
11:25 11.1 77.2 1020.0 3.1 SW 5.3 WSW 0.0 241.7
11:30 11.3 76.0 1020.0 3.2 SW 6.4 WSW 0.0 240.4
11:35 11.6 74.4 1020.0 0.8 WSW 2.8 WNW 0.0 230.3
11:40 11.4 69.5 1021.0 3.1 SE 6.7 SE 0.0 207.3
11:45 11.4 69.6 1020.0 1.8 ESE 4.6 ESE 0.0 208.4
11:50 11.5 69.1 1021.0 0.4 SSW 1.8 SSW 0.0 213.5
11:55 11.7 69.1 1020.0 0.3 WNW 2.1 NW 0.0 186.7
12:00 11.8 69.8 1020.0 0.3 W 1.8 W 0.0 151.0
12:05 11.8 68.9 1020.0 0.2 W 1.8 WSW 0.0 155.4
12:10 12.0 69.1 1020.0 2.7 ENE 9.9 ENE 0.0 197.4
12:15 11.8 69.3 1021.0 6.4 ENE 9.5 E 0.0 250.5
12:20 11.6 69.5 1021.0 5.9 ENE 9.9 ENE 0.0 243.3
12:25 11.5 70.3 1021.0 6.9 ENE 9.9 ENE 0.0 164.6
12:30 11.3 70.7 1021.0 5.0 ENE 8.5 ENE 0.0 123.6
12:35 11.3 70.9 1021.0 1.7 ENE 3.9 NE 0.0 127.4
12:40 11.3 70.2 1021.0 4.4 ENE 7.1 E 0.0 144.3
12:45 11.3 71.0 1021.0 3.2 ENE 6.4 ENE 0.0 177.2
12:50 11.3 70.8 1021.0 5.0 ENE 8.1 ENE 0.0 167.0
12:55 11.3 71.0 1020.0 2.8 NE 5.6 NE 0.0 126.0
13:00 11.3 71.2 1021.0 4.6 NE 8.5 NE 0.0 102.5
13:05 11.3 71.3 1021.0 4.4 NE 7.1 NE 0.0 99.5
13:10 11.2 71.9 1021.0 3.6 NE 6.0 N 0.0 106.9
13:15 11.2 71.9 1021.0 4.4 NE 8.8 ENE 0.0 114.6
13:20 11.1 72.1 1021.0 6.1 NE 8.5 ENE 0.0 116.1
13:25 11.1 73.2 1021.0 3.7 NE 7.1 ENE 0.0 125.4
13:30 11.0 72.8 1021.0 7.7 NE 11.6 ENE 0.0 140.2
13:35 10.8 73.7 1021.0 5.1 NE 9.5 ENE 0.0 151.8
13:40 10.9 74.8 1021.0 4.1 NE 7.8 NE 0.0 176.9
13:45 11.0 75.5 1021.0 3.9 NNE 7.1 NNE 0.0 189.8
13:50 10.9 73.4 1021.0 7.0 ENE 12.0 ENE 0.0 160.5
13:55 10.6 73.9 1021.0 5.5 ENE 13.4 E 0.0 115.2
14:00 10.4 74.0 1021.0 5.6 ENE 9.9 ENE 0.0 88.5
14:05 10.3 74.4 1021.0 5.2 ENE 8.5 E 0.0 70.5
14:10 10.3 74.7 1020.0 1.8 E 5.3 ENE 0.0 68.1
14:15 10.3 74.9 1021.0 1.1 SSE 3.2 SE 0.0 69.6
14:20 10.3 75.2 1021.0 1.3 SE 3.5 E 0.0 77.9
14:25 10.3 75.2 1021.0 3.5 ENE 5.6 ENE 0.0 107.1
14:30 10.4 76.1 1021.0 3.6 NE 6.0 NE 0.0 127.1
14:35 10.5 75.8 1021.0 4.2 NE 6.0 ENE 0.0 117.2
14:40 10.5 76.2 1021.0 4.0 NE 6.7 NE 0.0 99.5
14:45 10.6 76.7 1021.0 3.5 ENE 6.4 ENE 0.0 88.9
14:50 10.4 76.3 1021.0 3.3 ENE 5.6 E 0.0 85.8
14:55 10.4 77.1 1021.0 1.1 ENE 3.9 NE 0.0 87.4
15:00 10.4 76.8 1021.0 2.3 NE 3.9 ENE 0.0 85.4
15:05 10.5 78.0 1021.0 1.4 N 3.2 N 0.0 84.5
15:10 10.6 79.0 1021.0 1.6 NNW 3.2 N 0.0 79.7
15:15 10.6 79.8 1021.0 2.4 NNW 4.9 NNW 0.0 76.3
15:20 10.5 80.5 1021.0 1.6 NNE 4.2 NNW 0.1 71.0
15:25 10.4 80.4 1021.0 0.5 N 2.5 W 0.0 52.2
15:30 10.4 80.4 1021.0 2.6 NNE 6.7 NE 0.0 44.3
15:35 10.3 80.1 1021.0 1.8 N 5.3 ENE 0.0 42.7
15:40 10.1 80.4 1021.0 1.5 WNW 4.6 N 0.0 48.8
15:45 9.9 79.9 1021.0 5.2 NE 9.9 NE 0.0 61.1
15:50 9.9 79.0 1021.0 4.2 ENE 8.8 ENE 0.0 63.2
15:55 9.9 78.9 1021.0 3.1 ESE 8.1 E 0.0 51.1
16:00 9.9 79.5 1021.0 2.1 ENE 7.1 ENE 0.0 45.7
16:05 9.9 79.7 1021.0 4.3 NE 8.1 NE 0.0 39.0
16:10 9.9 79.8 1021.0 3.1 ENE 5.6 ENE 0.0 32.3
16:15 9.8 80.2 1021.0 3.4 NNE 7.8 NNE 0.0 30.0
16:20 9.7 80.0 1021.0 1.4 NNW 3.9 NE 0.0 28.5
16:25 9.7 80.4 1021.0 0.7 W 2.1 WSW 0.0 26.9
16:30 9.7 80.8 1021.0 1.7 NW 3.5 N 0.0 23.9
16:35 9.7 82.1 1021.0 3.3 WNW 6.0 NNW 0.0 22.0
16:40 9.6 83.0 1021.0 2.0 SW 4.6 SSW 0.0 21.0
16:45 9.5 83.8 1021.0 3.1 SSW 5.6 SSW 0.0 18.4
16:50 9.5 84.4 1021.0 3.7 SW 4.9 SW 0.0 16.9
16:55 9.5 85.3 1021.0 3.8 SW 4.6 SW 0.0 17.2
17:00 9.5 86.2 1021.0 3.7 SW 5.3 SW 0.0 16.0
17:05 9.4 86.9 1021.0 3.7 S 7.1 S 0.1 15.6
17:10 9.2 87.1 1021.0 5.5 S 11.6 S 0.0 14.2
17:15 9.2 85.5 1021.0 5.4 S 10.6 SSW 0.0 13.1
17:20 9.4 84.3 1021.0 1.9 SSE 6.4 SW 0.0 11.7
17:25 9.3 84.7 1021.0 2.8 S 6.4 S 0.0 10.7
17:30 9.2 85.7 1021.0 1.8 SSW 4.9 SSW 0.1 10.2
17:35 9.2 86.7 1021.0 2.2 W 4.6 SSW 0.0 9.6
17:40 9.2 87.3 1021.0 1.2 E 2.8 ENE 0.0 6.7
17:45 9.1 88.0 1022.0 2.6 SW 4.2 SW 0.0 5.3
17:50 9.0 88.4 1021.0 1.1 N 2.8 NNE 0.1 3.8
17:55 9.0 88.8 1021.0 0.7 ESE 3.5 ESE 0.0 2.4
18:00 8.9 89.2 1022.0 0.0 ESE 1.1 ESE 0.1 1.5
18:05 8.9 89.6 1022.0 0.0 NE 0.4 SSE 0.0 1.2
18:10 8.7 89.7 1022.0 0.9 ESE 3.5 NNE 0.1 0.3
18:15 8.7 90.2 1023.0 1.1 NE 3.2 NE 0.1 0.0
18:20 8.7 90.4 1022.0 0.0 NNE 0.4 W 0.0 0.0
18:25 8.7 90.5 1022.0 1.3 S 6.0 S 0.1 0.0
18:30 8.5 90.2 1022.0 2.1 SSW 6.4 SW 0.1 0.0
18:35 8.4 90.3 1022.0 3.5 SSW 8.8 SW 0.1 0.0
18:40 8.3 90.3 1022.0 7.2 SSW 10.2 SW 0.1 0.0
18:45 8.3 90.6 1023.0 2.5 SSW 6.0 SSW 0.2 0.0
18:50 8.2 90.8 1022.0 2.9 W 4.9 WNW 0.1 0.0
18:55 8.1 91.0 1022.0 5.7 SW 8.5 SSW 0.1 0.0
19:00 8.0 91.2 1022.0 5.7 SW 8.5 SSW 0.1 0.0
19:05 8.1 91.7 1022.0 3.8 WSW 7.1 SW 0.1 0.0
19:10 8.0 91.9 1022.0 3.6 WSW 6.0 WSW 0.1 0.0
19:15 7.9 92.1 1023.0 4.3 SW 6.0 SW 0.2 0.0
19:20 7.9 92.2 1022.0 3.5 WSW 4.9 WSW 0.1 0.0
19:25 7.8 92.2 1022.0 3.1 SW 3.9 SW 0.0 0.0
19:30 7.8 92.4 1022.0 2.8 WSW 4.9 SW 0.1 0.0
19:35 7.8 92.5 1022.0 3.6 SW 5.3 SW 0.0 0.0
19:40 7.8 92.6 1022.0 2.6 WSW 4.6 SW 0.1 0.0
19:45 7.8 92.7 1023.0 3.5 SW 6.0 SSW 0.0 0.0
19:50 7.8 92.8 1022.0 4.8 SW 8.5 SW 0.0 0.0
19:55 7.8 92.9 1022.0 3.9 SSW 6.7 SSW 0.0 0.0
20:00 7.8 93.0 1022.0 2.9 WSW 7.1 WSW 0.1 0.0
20:05 7.8 93.1 1022.0 2.4 SW 7.1 S 0.0 0.0
20:10 7.8 93.3 1022.0 4.0 SSW 7.4 SSW 0.0 0.0
20:15 7.8 93.2 1023.0 5.1 SW 6.7 SW 0.0 0.0
20:20 7.8 93.3 1022.0 2.6 SW 5.6 WSW 0.0 0.0
20:25 7.9 93.4 1022.0 6.3 SW 9.2 SW 0.0 0.0
20:30 7.8 93.4 1022.0 5.8 SW 8.1 SW 0.0 0.0
20:35 7.8 93.5 1023.0 2.2 SW 6.0 W 0.0 0.0
20:40 7.8 93.5 1022.0 1.6 W 4.6 WSW 0.0 0.0
20:45 7.9 93.6 1023.0 2.9 SSW 5.6 SSW 0.0 0.0
20:50 7.9 93.7 1023.0 3.7 SW 6.4 SSW 0.0 0.0
20:55 7.8 93.7 1023.0 4.4 WSW 6.0 W 0.0 0.0
21:00 7.8 93.9 1022.0 7.2 SW 10.2 SW 0.0 0.0
21:05 7.8 94.0 1022.0 9.0 SW 11.6 SW 0.0 0.0
21:10 7.9 94.0 1023.0 6.2 SW 9.2 SW 0.0 0.0
21:15 7.8 94.0 1023.0 5.6 SW 10.2 SSW 0.0 0.0
21:20 7.8 94.0 1022.0 6.1 SSW 8.1 S 0.0 0.0
21:25 7.9 94.1 1023.0 5.4 WSW 9.5 SSW 0.0 0.0
21:30 7.9 94.1 1022.0 7.4 SW 10.2 SSW 0.0 0.0
21:35 7.9 94.1 1022.0 6.7 SW 11.3 SSW 0.0 0.0
21:40 7.8 94.1 1022.0 3.3 SW 8.1 SSW 0.0 0.0
21:45 7.8 94.2 1023.0 4.7 SW 7.4 SW 0.0 0.0
21:50 7.9 94.2 1022.0 5.7 SSW 8.5 SSW 0.0 0.0
Màxima 12.0 95.1 1023.0 9.0 SW 13.4 E 0.2 250.5
Mínima 5.8 68.9 1020.0
Total 2.5